sensor_id;sensor_type;location;lat;lon;timestamp;temperature;humidity
46976;DHT22;32724;51.094;6.996;2023-02-12T00:00:39;6.10;99.90
46976;DHT22;32724;51.094;6.996;2023-02-12T00:03:04;6.00;99.90
46976;DHT22;32724;51.094;6.996;2023-02-12T00:05:30;6.00;99.90
46976;DHT22;32724;51.094;6.996;2023-02-12T00:07:56;6.00;99.90
46976;DHT22;32724;51.094;6.996;2023-02-12T00:10:21;6.00;99.90
46976;DHT22;32724;51.094;6.996;2023-02-12T00:12:47;5.90;99.90
46976;DHT22;32724;51.094;6.996;2023-02-12T00:15:27;6.00;99.90
46976;DHT22;32724;51.094;6.996;2023-02-12T00:17:52;6.10;99.90
46976;DHT22;32724;51.094;6.996;2023-02-12T00:20:18;6.10;99.90
46976;DHT22;32724;51.094;6.996;2023-02-12T00:22:43;6.20;99.90
46976;DHT22;32724;51.094;6.996;2023-02-12T00:25:09;6.20;99.90
46976;DHT22;32724;51.094;6.996;2023-02-12T00:27:34;6.30;99.90
46976;DHT22;32724;51.094;6.996;2023-02-12T00:30:00;6.30;99.90
46976;DHT22;32724;51.094;6.996;2023-02-12T00:32:25;6.30;99.90
46976;DHT22;32724;51.094;6.996;2023-02-12T00:34:51;6.40;99.90
46976;DHT22;32724;51.094;6.996;2023-02-12T00:37:16;6.20;99.90
46976;DHT22;32724;51.094;6.996;2023-02-12T00:39:42;5.90;99.90
46976;DHT22;32724;51.094;6.996;2023-02-12T00:42:07;6.00;99.90
46976;DHT22;32724;51.094;6.996;2023-02-12T00:44:33;6.00;99.90
46976;DHT22;32724;51.094;6.996;2023-02-12T00:46:59;6.10;99.90
46976;DHT22;32724;51.094;6.996;2023-02-12T00:49:29;6.00;99.90
46976;DHT22;32724;51.094;6.996;2023-02-12T00:51:59;6.00;99.90
46976;DHT22;32724;51.094;6.996;2023-02-12T00:54:25;6.00;99.90
46976;DHT22;32724;51.094;6.996;2023-02-12T00:56:51;6.10;99.90
46976;DHT22;32724;51.094;6.996;2023-02-12T00:59:16;6.40;99.90
46976;DHT22;32724;51.094;6.996;2023-02-12T01:01:42;6.60;99.90
46976;DHT22;32724;51.094;6.996;2023-02-12T01:04:07;6.20;99.90
46976;DHT22;32724;51.094;6.996;2023-02-12T01:06:33;6.10;99.90
46976;DHT22;32724;51.094;6.996;2023-02-12T01:08:58;6.00;99.90
46976;DHT22;32724;51.094;6.996;2023-02-12T01:11:24;6.00;99.90
46976;DHT22;32724;51.094;6.996;2023-02-12T01:13:49;5.90;99.90
46976;DHT22;32724;51.094;6.996;2023-02-12T01:16:16;5.90;99.90
46976;DHT22;32724;51.094;6.996;2023-02-12T01:18:42;6.00;99.90
46976;DHT22;32724;51.094;6.996;2023-02-12T01:21:08;6.10;99.90
46976;DHT22;32724;51.094;6.996;2023-02-12T01:23:34;6.10;99.90
46976;DHT22;32724;51.094;6.996;2023-02-12T01:25:59;6.10;99.90
46976;DHT22;32724;51.094;6.996;2023-02-12T01:28:25;6.10;99.90
46976;DHT22;32724;51.094;6.996;2023-02-12T01:30:50;6.00;99.90
46976;DHT22;32724;51.094;6.996;2023-02-12T01:33:16;6.10;99.90
46976;DHT22;32724;51.094;6.996;2023-02-12T01:35:41;6.10;99.90
46976;DHT22;32724;51.094;6.996;2023-02-12T01:38:07;6.10;99.90
46976;DHT22;32724;51.094;6.996;2023-02-12T01:40:32;6.20;99.90
46976;DHT22;32724;51.094;6.996;2023-02-12T01:43:01;6.20;99.90
46976;DHT22;32724;51.094;6.996;2023-02-12T01:47:52;6.30;99.90
46976;DHT22;32724;51.094;6.996;2023-02-12T01:50:18;6.30;99.90
46976;DHT22;32724;51.094;6.996;2023-02-12T01:52:49;6.30;99.90
46976;DHT22;32724;51.094;6.996;2023-02-12T01:55:30;5.70;99.90
46976;DHT22;32724;51.094;6.996;2023-02-12T01:57:56;5.80;99.90
46976;DHT22;32724;51.094;6.996;2023-02-12T02:00:24;5.80;99.90
46976;DHT22;32724;51.094;6.996;2023-02-12T02:02:51;5.90;99.90
46976;DHT22;32724;51.094;6.996;2023-02-12T02:05:22;5.90;99.90
46976;DHT22;32724;51.094;6.996;2023-02-12T02:07:48;5.90;99.90
46976;DHT22;32724;51.094;6.996;2023-02-12T02:10:13;5.90;99.90
46976;DHT22;32724;51.094;6.996;2023-02-12T02:12:39;5.80;99.90
46976;DHT22;32724;51.094;6.996;2023-02-12T02:15:24;5.80;99.90
46976;DHT22;32724;51.094;6.996;2023-02-12T02:17:55;5.80;99.90
46976;DHT22;32724;51.094;6.996;2023-02-12T02:20:35;5.80;99.90
46976;DHT22;32724;51.094;6.996;2023-02-12T02:30:49;5.80;99.90
46976;DHT22;32724;51.094;6.996;2023-02-12T02:36:14;5.90;99.90
46976;DHT22;32724;51.094;6.996;2023-02-12T02:38:44;5.90;99.90
46976;DHT22;32724;51.094;6.996;2023-02-12T02:41:18;6.00;99.90
46976;DHT22;32724;51.094;6.996;2023-02-12T02:43:48;6.00;99.90
46976;DHT22;32724;51.094;6.996;2023-02-12T02:46:19;6.10;99.90
46976;DHT22;32724;51.094;6.996;2023-02-12T02:48:49;6.10;99.90
46976;DHT22;32724;51.094;6.996;2023-02-12T02:51:20;6.10;99.90
46976;DHT22;32724;51.094;6.996;2023-02-12T02:53:48;6.20;99.90
46976;DHT22;32724;51.094;6.996;2023-02-12T02:56:17;6.00;99.90
46976;DHT22;32724;51.094;6.996;2023-02-12T02:58:45;5.80;99.90
46976;DHT22;32724;51.094;6.996;2023-02-12T03:01:21;5.80;99.90
46976;DHT22;32724;51.094;6.996;2023-02-12T03:03:58;5.80;99.90
46976;DHT22;32724;51.094;6.996;2023-02-12T03:06:31;5.70;99.90
46976;DHT22;32724;51.094;6.996;2023-02-12T03:08:59;5.70;99.90
46976;DHT22;32724;51.094;6.996;2023-02-12T03:11:25;5.70;99.90
46976;DHT22;32724;51.094;6.996;2023-02-12T03:13:56;5.70;99.90
46976;DHT22;32724;51.094;6.996;2023-02-12T03:16:24;5.70;99.90
46976;DHT22;32724;51.094;6.996;2023-02-12T03:21:17;5.80;99.90
46976;DHT22;32724;51.094;6.996;2023-02-12T03:23:50;5.80;99.90
46976;DHT22;32724;51.094;6.996;2023-02-12T03:29:11;5.80;99.90
46976;DHT22;32724;51.094;6.996;2023-02-12T03:31:44;5.80;99.90
46976;DHT22;32724;51.094;6.996;2023-02-12T03:34:23;5.80;99.90
46976;DHT22;32724;51.094;6.996;2023-02-12T03:42:08;6.00;99.90
46976;DHT22;32724;51.094;6.996;2023-02-12T03:44:48;6.00;99.90
46976;DHT22;32724;51.094;6.996;2023-02-12T03:47:16;6.10;99.90
46976;DHT22;32724;51.094;6.996;2023-02-12T03:52:15;6.10;99.90
46976;DHT22;32724;51.094;6.996;2023-02-12T03:54:40;6.00;99.90
46976;DHT22;32724;51.094;6.996;2023-02-12T03:57:10;5.70;99.90
46976;DHT22;32724;51.094;6.996;2023-02-12T03:59:37;5.70;99.90
46976;DHT22;32724;51.094;6.996;2023-02-12T04:02:02;5.70;99.90
46976;DHT22;32724;51.094;6.996;2023-02-12T04:04:28;5.70;99.90
46976;DHT22;32724;51.094;6.996;2023-02-12T04:06:54;5.80;99.90
46976;DHT22;32724;51.094;6.996;2023-02-12T04:09:20;5.70;99.90
46976;DHT22;32724;51.094;6.996;2023-02-12T04:16:42;5.70;99.90
46976;DHT22;32724;51.094;6.996;2023-02-12T04:19:10;5.70;99.90
46976;DHT22;32724;51.094;6.996;2023-02-12T04:21:51;5.70;99.90
46976;DHT22;32724;51.094;6.996;2023-02-12T04:24:21;5.60;99.90
46976;DHT22;32724;51.094;6.996;2023-02-12T04:26:56;5.60;99.90
46976;DHT22;32724;51.094;6.996;2023-02-12T04:29:33;5.50;99.90
46976;DHT22;32724;51.094;6.996;2023-02-12T04:32:06;5.60;99.90
46976;DHT22;32724;51.094;6.996;2023-02-12T04:37:08;5.70;99.90
46976;DHT22;32724;51.094;6.996;2023-02-12T04:39:36;5.80;99.90
46976;DHT22;32724;51.094;6.996;2023-02-12T04:42:03;5.80;99.90
46976;DHT22;32724;51.094;6.996;2023-02-12T04:44:31;5.80;99.90
46976;DHT22;32724;51.094;6.996;2023-02-12T04:46:56;5.90;99.90
46976;DHT22;32724;51.094;6.996;2023-02-12T04:49:22;6.00;99.90
46976;DHT22;32724;51.094;6.996;2023-02-12T04:51:48;6.00;99.90
46976;DHT22;32724;51.094;6.996;2023-02-12T04:54:15;6.10;99.90
46976;DHT22;32724;51.094;6.996;2023-02-12T04:56:41;5.70;99.90
46976;DHT22;32724;51.094;6.996;2023-02-12T04:59:06;5.70;99.90
46976;DHT22;32724;51.094;6.996;2023-02-12T05:01:33;5.70;99.90
46976;DHT22;32724;51.094;6.996;2023-02-12T05:03:59;5.80;99.90
46976;DHT22;32724;51.094;6.996;2023-02-12T05:06:26;5.80;99.90
46976;DHT22;32724;51.094;6.996;2023-02-12T05:08:52;5.90;99.90
46976;DHT22;32724;51.094;6.996;2023-02-12T05:11:18;5.90;99.90
46976;DHT22;32724;51.094;6.996;2023-02-12T05:13:44;5.90;99.90
46976;DHT22;32724;51.094;6.996;2023-02-12T05:16:12;5.90;99.90
46976;DHT22;32724;51.094;6.996;2023-02-12T05:18:37;5.90;99.90
46976;DHT22;32724;51.094;6.996;2023-02-12T05:21:03;5.90;99.90
46976;DHT22;32724;51.094;6.996;2023-02-12T05:23:43;5.90;99.90
46976;DHT22;32724;51.094;6.996;2023-02-12T05:26:13;5.90;99.90
46976;DHT22;32724;51.094;6.996;2023-02-12T05:28:38;5.90;99.90
46976;DHT22;32724;51.094;6.996;2023-02-12T05:31:05;5.90;99.90
46976;DHT22;32724;51.094;6.996;2023-02-12T05:33:30;6.00;99.90
46976;DHT22;32724;51.094;6.996;2023-02-12T05:36:01;6.30;99.90
46976;DHT22;32724;51.094;6.996;2023-02-12T05:38:27;6.10;99.90
46976;DHT22;32724;51.094;6.996;2023-02-12T05:40:52;5.60;99.90
46976;DHT22;32724;51.094;6.996;2023-02-12T05:43:18;5.40;99.90
46976;DHT22;32724;51.094;6.996;2023-02-12T05:45:43;5.40;99.90
46976;DHT22;32724;51.094;6.996;2023-02-12T05:48:09;5.50;99.90
46976;DHT22;32724;51.094;6.996;2023-02-12T05:50:35;5.60;99.90
46976;DHT22;32724;51.094;6.996;2023-02-12T05:53:00;5.60;99.90
46976;DHT22;32724;51.094;6.996;2023-02-12T05:55:26;5.70;99.90
46976;DHT22;32724;51.094;6.996;2023-02-12T05:57:51;5.80;99.90
46976;DHT22;32724;51.094;6.996;2023-02-12T06:00:17;5.90;99.90
46976;DHT22;32724;51.094;6.996;2023-02-12T06:02:42;6.00;99.90
46976;DHT22;32724;51.094;6.996;2023-02-12T06:05:08;6.00;99.90
46976;DHT22;32724;51.094;6.996;2023-02-12T06:07:33;6.10;99.90
46976;DHT22;32724;51.094;6.996;2023-02-12T06:09:59;6.10;99.90
46976;DHT22;32724;51.094;6.996;2023-02-12T06:12:24;6.10;99.90
46976;DHT22;32724;51.094;6.996;2023-02-12T06:14:50;6.10;99.90
46976;DHT22;32724;51.094;6.996;2023-02-12T06:17:15;5.80;99.90
46976;DHT22;32724;51.094;6.996;2023-02-12T06:19:41;5.80;99.90
46976;DHT22;32724;51.094;6.996;2023-02-12T06:22:06;5.80;99.90
46976;DHT22;32724;51.094;6.996;2023-02-12T06:24:31;5.70;99.90
46976;DHT22;32724;51.094;6.996;2023-02-12T06:26:57;5.60;99.90
46976;DHT22;32724;51.094;6.996;2023-02-12T06:29:23;5.60;99.90
46976;DHT22;32724;51.094;6.996;2023-02-12T06:31:48;5.60;99.90
46976;DHT22;32724;51.094;6.996;2023-02-12T06:34:14;5.80;99.90
46976;DHT22;32724;51.094;6.996;2023-02-12T06:36:44;5.80;99.90
46976;DHT22;32724;51.094;6.996;2023-02-12T06:39:11;5.80;99.90
46976;DHT22;32724;51.094;6.996;2023-02-12T06:41:36;5.80;99.90
46976;DHT22;32724;51.094;6.996;2023-02-12T06:44:02;5.80;99.90
46976;DHT22;32724;51.094;6.996;2023-02-12T06:46:28;5.90;99.90
46976;DHT22;32724;51.094;6.996;2023-02-12T06:48:54;5.90;99.90
46976;DHT22;32724;51.094;6.996;2023-02-12T06:51:19;5.90;99.90
46976;DHT22;32724;51.094;6.996;2023-02-12T06:53:48;5.90;99.90
46976;DHT22;32724;51.094;6.996;2023-02-12T06:56:14;6.00;99.90
46976;DHT22;32724;51.094;6.996;2023-02-12T06:58:40;6.10;99.90
46976;DHT22;32724;51.094;6.996;2023-02-12T07:03:40;6.10;99.90
46976;DHT22;32724;51.094;6.996;2023-02-12T07:06:06;6.10;99.90
46976;DHT22;32724;51.094;6.996;2023-02-12T07:08:32;6.20;99.90
46976;DHT22;32724;51.094;6.996;2023-02-12T07:10:57;6.20;99.90
46976;DHT22;32724;51.094;6.996;2023-02-12T07:13:23;6.20;99.90
46976;DHT22;32724;51.094;6.996;2023-02-12T07:15:48;5.90;99.90
46976;DHT22;32724;51.094;6.996;2023-02-12T07:18:13;5.70;99.90
46976;DHT22;32724;51.094;6.996;2023-02-12T07:20:39;5.70;99.90
46976;DHT22;32724;51.094;6.996;2023-02-12T07:23:04;5.70;99.90
46976;DHT22;32724;51.094;6.996;2023-02-12T07:25:30;5.80;99.90
46976;DHT22;32724;51.094;6.996;2023-02-12T07:27:55;5.80;99.90
46976;DHT22;32724;51.094;6.996;2023-02-12T07:30:21;5.90;99.90
46976;DHT22;32724;51.094;6.996;2023-02-12T07:32:46;5.90;99.90
46976;DHT22;32724;51.094;6.996;2023-02-12T07:35:12;6.00;99.90
46976;DHT22;32724;51.094;6.996;2023-02-12T07:37:37;6.00;99.90
46976;DHT22;32724;51.094;6.996;2023-02-12T07:40:03;6.00;99.90
46976;DHT22;32724;51.094;6.996;2023-02-12T07:42:28;6.00;99.90
46976;DHT22;32724;51.094;6.996;2023-02-12T07:44:54;6.10;99.90
46976;DHT22;32724;51.094;6.996;2023-02-12T07:47:19;6.10;99.90
46976;DHT22;32724;51.094;6.996;2023-02-12T07:49:45;6.10;99.90
46976;DHT22;32724;51.094;6.996;2023-02-12T07:52:10;6.10;99.90
46976;DHT22;32724;51.094;6.996;2023-02-12T07:54:36;6.20;99.90
46976;DHT22;32724;51.094;6.996;2023-02-12T07:57:02;6.30;99.90
46976;DHT22;32724;51.094;6.996;2023-02-12T07:59:32;6.40;99.90
46976;DHT22;32724;51.094;6.996;2023-02-12T08:01:58;6.40;99.90
46976;DHT22;32724;51.094;6.996;2023-02-12T08:04:25;6.50;99.90
46976;DHT22;32724;51.094;6.996;2023-02-12T08:06:51;6.60;99.90
46976;DHT22;32724;51.094;6.996;2023-02-12T08:09:19;6.70;99.90
46976;DHT22;32724;51.094;6.996;2023-02-12T08:11:45;6.70;99.90
46976;DHT22;32724;51.094;6.996;2023-02-12T08:14:11;6.80;99.90
46976;DHT22;32724;51.094;6.996;2023-02-12T08:16:38;6.90;99.90
46976;DHT22;32724;51.094;6.996;2023-02-12T08:19:04;6.40;99.90
46976;DHT22;32724;51.094;6.996;2023-02-12T08:21:30;6.30;99.90
46976;DHT22;32724;51.094;6.996;2023-02-12T08:23:56;6.40;99.90
46976;DHT22;32724;51.094;6.996;2023-02-12T08:28:55;6.50;99.90
46976;DHT22;32724;51.094;6.996;2023-02-12T08:31:21;6.50;99.90
46976;DHT22;32724;51.094;6.996;2023-02-12T08:33:48;6.60;99.90
46976;DHT22;32724;51.094;6.996;2023-02-12T08:36:15;6.60;99.90
46976;DHT22;32724;51.094;6.996;2023-02-12T08:38:41;6.70;99.90
46976;DHT22;32724;51.094;6.996;2023-02-12T08:41:08;6.70;99.90
46976;DHT22;32724;51.094;6.996;2023-02-12T08:43:34;6.70;99.90
46976;DHT22;32724;51.094;6.996;2023-02-12T08:46:04;6.80;99.90
46976;DHT22;32724;51.094;6.996;2023-02-12T08:48:30;6.90;99.90
46976;DHT22;32724;51.094;6.996;2023-02-12T08:50:56;7.00;99.90
46976;DHT22;32724;51.094;6.996;2023-02-12T08:53:27;7.20;99.90
46976;DHT22;32724;51.094;6.996;2023-02-12T08:55:52;7.40;99.90
46976;DHT22;32724;51.094;6.996;2023-02-12T08:58:18;7.50;99.90
46976;DHT22;32724;51.094;6.996;2023-02-12T09:00:43;7.70;99.90
46976;DHT22;32724;51.094;6.996;2023-02-12T09:03:08;7.80;99.90
46976;DHT22;32724;51.094;6.996;2023-02-12T09:05:37;7.90;99.90
46976;DHT22;32724;51.094;6.996;2023-02-12T09:08:02;8.00;99.90
46976;DHT22;32724;51.094;6.996;2023-02-12T09:10:28;8.10;99.90
46976;DHT22;32724;51.094;6.996;2023-02-12T09:12:53;8.20;99.90
46976;DHT22;32724;51.094;6.996;2023-02-12T09:15:18;8.00;99.90
46976;DHT22;32724;51.094;6.996;2023-02-12T09:17:44;7.70;99.90
46976;DHT22;32724;51.094;6.996;2023-02-12T09:20:09;7.60;99.90
46976;DHT22;32724;51.094;6.996;2023-02-12T09:22:35;7.70;99.90
46976;DHT22;32724;51.094;6.996;2023-02-12T09:25:02;7.70;99.90
46976;DHT22;32724;51.094;6.996;2023-02-12T09:27:28;7.80;99.90
46976;DHT22;32724;51.094;6.996;2023-02-12T09:29:53;7.90;99.90
46976;DHT22;32724;51.094;6.996;2023-02-12T09:32:19;8.20;99.90
46976;DHT22;32724;51.094;6.996;2023-02-12T09:34:44;8.40;99.90
46976;DHT22;32724;51.094;6.996;2023-02-12T09:37:10;8.60;99.90
46976;DHT22;32724;51.094;6.996;2023-02-12T09:39:35;8.80;99.90
46976;DHT22;32724;51.094;6.996;2023-02-12T09:46:58;9.30;99.90
46976;DHT22;32724;51.094;6.996;2023-02-12T09:49:32;9.40;99.90
46976;DHT22;32724;51.094;6.996;2023-02-12T09:52:01;9.40;99.90
46976;DHT22;32724;51.094;6.996;2023-02-12T09:54:30;9.30;99.90
46976;DHT22;32724;51.094;6.996;2023-02-12T09:56:58;9.30;99.90
46976;DHT22;32724;51.094;6.996;2023-02-12T09:59:39;9.40;99.90
46976;DHT22;32724;51.094;6.996;2023-02-12T10:02:09;9.60;99.90
46976;DHT22;32724;51.094;6.996;2023-02-12T10:04:36;9.80;99.90
46976;DHT22;32724;51.094;6.996;2023-02-12T10:07:05;10.00;99.90
46976;DHT22;32724;51.094;6.996;2023-02-12T10:17:17;10.10;99.90
46976;DHT22;32724;51.094;6.996;2023-02-12T10:20:08;10.10;99.90
46976;DHT22;32724;51.094;6.996;2023-02-12T10:22:37;9.80;99.90
46976;DHT22;32724;51.094;6.996;2023-02-12T10:27:42;9.10;99.90
46976;DHT22;32724;51.094;6.996;2023-02-12T10:32:59;9.10;99.90
46976;DHT22;32724;51.094;6.996;2023-02-12T10:35:26;9.20;99.90
46976;DHT22;32724;51.094;6.996;2023-02-12T10:40:18;9.80;99.90
46976;DHT22;32724;51.094;6.996;2023-02-12T10:42:47;10.00;99.90
46976;DHT22;32724;51.094;6.996;2023-02-12T10:45:14;10.30;99.90
46976;DHT22;32724;51.094;6.996;2023-02-12T10:47:40;10.40;99.90
46976;DHT22;32724;51.094;6.996;2023-02-12T10:50:13;10.60;99.90
46976;DHT22;32724;51.094;6.996;2023-02-12T10:52:44;10.60;99.90
46976;DHT22;32724;51.094;6.996;2023-02-12T10:55:29;10.70;99.90
46976;DHT22;32724;51.094;6.996;2023-02-12T10:57:57;10.90;99.90
46976;DHT22;32724;51.094;6.996;2023-02-12T11:00:24;10.90;99.90
46976;DHT22;32724;51.094;6.996;2023-02-12T11:05:28;11.00;99.90
46976;DHT22;32724;51.094;6.996;2023-02-12T11:07:54;11.00;99.90
46976;DHT22;32724;51.094;6.996;2023-02-12T11:10:26;11.00;99.90
46976;DHT22;32724;51.094;6.996;2023-02-12T11:12:52;10.90;99.90
46976;DHT22;32724;51.094;6.996;2023-02-12T11:15:19;11.00;99.90
46976;DHT22;32724;51.094;6.996;2023-02-12T11:18:02;10.90;99.90
46976;DHT22;32724;51.094;6.996;2023-02-12T11:20:29;10.90;99.90
46976;DHT22;32724;51.094;6.996;2023-02-12T11:22:58;11.00;99.90
46976;DHT22;32724;51.094;6.996;2023-02-12T11:25:25;11.00;99.90
46976;DHT22;32724;51.094;6.996;2023-02-12T11:28:24;11.10;99.90
46976;DHT22;32724;51.094;6.996;2023-02-12T11:30:53;11.20;99.90
46976;DHT22;32724;51.094;6.996;2023-02-12T11:33:30;11.30;99.90
46976;DHT22;32724;51.094;6.996;2023-02-12T11:36:15;11.40;99.90
46976;DHT22;32724;51.094;6.996;2023-02-12T11:38:48;11.40;99.90
46976;DHT22;32724;51.094;6.996;2023-02-12T11:41:33;11.30;99.90
46976;DHT22;32724;51.094;6.996;2023-02-12T11:44:10;10.40;99.90
46976;DHT22;32724;51.094;6.996;2023-02-12T11:46:36;10.20;99.90
46976;DHT22;32724;51.094;6.996;2023-02-12T11:49:02;9.80;99.90
46976;DHT22;32724;51.094;6.996;2023-02-12T11:51:29;9.80;99.90
46976;DHT22;32724;51.094;6.996;2023-02-12T11:53:57;9.60;99.90
46976;DHT22;32724;51.094;6.996;2023-02-12T11:56:24;9.90;99.90
46976;DHT22;32724;51.094;6.996;2023-02-12T11:58:50;10.30;99.90
46976;DHT22;32724;51.094;6.996;2023-02-12T12:08:55;10.90;99.90
46976;DHT22;32724;51.094;6.996;2023-02-12T12:17:24;11.10;99.90
46976;DHT22;32724;51.094;6.996;2023-02-12T12:20:18;11.30;99.90
46976;DHT22;32724;51.094;6.996;2023-02-12T12:23:06;11.20;99.90
46976;DHT22;32724;51.094;6.996;2023-02-12T12:25:48;11.30;99.90
46976;DHT22;32724;51.094;6.996;2023-02-12T12:28:39;11.20;99.90
46976;DHT22;32724;51.094;6.996;2023-02-12T12:31:11;11.00;99.90
46976;DHT22;32724;51.094;6.996;2023-02-12T12:33:43;11.00;99.90
46976;DHT22;32724;51.094;6.996;2023-02-12T12:41:13;11.50;99.90
46976;DHT22;32724;51.094;6.996;2023-02-12T12:43:44;11.60;99.90
46976;DHT22;32724;51.094;6.996;2023-02-12T12:48:53;11.70;99.90
46976;DHT22;32724;51.094;6.996;2023-02-12T12:51:29;11.70;99.90
46976;DHT22;32724;51.094;6.996;2023-02-12T12:56:41;11.70;99.90
46976;DHT22;32724;51.094;6.996;2023-02-12T12:59:23;11.50;99.90
46976;DHT22;32724;51.094;6.996;2023-02-12T13:17:35;10.90;99.90
46976;DHT22;32724;51.094;6.996;2023-02-12T13:20:09;11.10;99.90
46976;DHT22;32724;51.094;6.996;2023-02-12T13:27:58;11.50;99.90
46976;DHT22;32724;51.094;6.996;2023-02-12T13:30:26;11.50;99.90
46976;DHT22;32724;51.094;6.996;2023-02-12T13:35:19;11.50;99.90
46976;DHT22;32724;51.094;6.996;2023-02-12T13:37:46;11.50;99.90
46976;DHT22;32724;51.094;6.996;2023-02-12T13:40:17;11.40;99.90
46976;DHT22;32724;51.094;6.996;2023-02-12T13:42:45;11.40;99.90
46976;DHT22;32724;51.094;6.996;2023-02-12T13:47:45;11.40;99.90
46976;DHT22;32724;51.094;6.996;2023-02-12T13:52:43;11.40;99.90
46976;DHT22;32724;51.094;6.996;2023-02-12T13:55:23;11.30;99.90
46976;DHT22;32724;51.094;6.996;2023-02-12T14:03:15;11.40;99.90
46976;DHT22;32724;51.094;6.996;2023-02-12T14:05:47;11.40;99.90
46976;DHT22;32724;51.094;6.996;2023-02-12T14:08:25;11.40;99.90
46976;DHT22;32724;51.094;6.996;2023-02-12T14:11:04;11.40;99.90
46976;DHT22;32724;51.094;6.996;2023-02-12T14:13:31;11.50;99.90
46976;DHT22;32724;51.094;6.996;2023-02-12T14:15:59;11.40;99.90
46976;DHT22;32724;51.094;6.996;2023-02-12T14:18:42;11.40;99.90
46976;DHT22;32724;51.094;6.996;2023-02-12T14:23:36;10.40;99.90
46976;DHT22;32724;51.094;6.996;2023-02-12T14:28:30;10.70;99.90
46976;DHT22;32724;51.094;6.996;2023-02-12T14:33:42;10.40;99.90
46976;DHT22;32724;51.094;6.996;2023-02-12T14:36:15;10.20;99.90
46976;DHT22;32724;51.094;6.996;2023-02-12T14:41:22;10.60;99.90
46976;DHT22;32724;51.094;6.996;2023-02-12T14:46:55;10.80;99.90
46976;DHT22;32724;51.094;6.996;2023-02-12T14:49:24;10.90;99.90
46976;DHT22;32724;51.094;6.996;2023-02-12T14:51:52;11.00;99.90
46976;DHT22;32724;51.094;6.996;2023-02-12T14:54:52;11.10;99.90
46976;DHT22;32724;51.094;6.996;2023-02-12T14:57:17;11.10;99.90
46976;DHT22;32724;51.094;6.996;2023-02-12T14:59:44;11.10;99.90
46976;DHT22;32724;51.094;6.996;2023-02-12T15:02:18;11.10;99.90
46976;DHT22;32724;51.094;6.996;2023-02-12T15:04:46;11.20;99.90
46976;DHT22;32724;51.094;6.996;2023-02-12T15:07:16;11.20;99.90
46976;DHT22;32724;51.094;6.996;2023-02-12T15:09:51;11.10;99.90
46976;DHT22;32724;51.094;6.996;2023-02-12T15:12:25;11.10;99.90
46976;DHT22;32724;51.094;6.996;2023-02-12T15:15:00;11.10;99.90
46976;DHT22;32724;51.094;6.996;2023-02-12T15:17:29;11.00;99.90
46976;DHT22;32724;51.094;6.996;2023-02-12T15:19:58;11.00;99.90
46976;DHT22;32724;51.094;6.996;2023-02-12T15:22:28;11.00;99.90
46976;DHT22;32724;51.094;6.996;2023-02-12T15:25:13;11.00;99.90
46976;DHT22;32724;51.094;6.996;2023-02-12T15:27:40;11.00;99.90
46976;DHT22;32724;51.094;6.996;2023-02-12T15:30:12;11.00;99.90
46976;DHT22;32724;51.094;6.996;2023-02-12T15:32:38;11.00;99.90
46976;DHT22;32724;51.094;6.996;2023-02-12T15:35:04;10.90;99.90
46976;DHT22;32724;51.094;6.996;2023-02-12T15:37:29;10.90;99.90
46976;DHT22;32724;51.094;6.996;2023-02-12T15:39:56;11.00;99.90
46976;DHT22;32724;51.094;6.996;2023-02-12T15:42:28;11.00;99.90
46976;DHT22;32724;51.094;6.996;2023-02-12T15:45:01;11.00;99.90
46976;DHT22;32724;51.094;6.996;2023-02-12T15:47:26;11.00;99.90
46976;DHT22;32724;51.094;6.996;2023-02-12T15:49:52;10.90;99.90
46976;DHT22;32724;51.094;6.996;2023-02-12T15:52:24;10.90;99.90
46976;DHT22;32724;51.094;6.996;2023-02-12T15:54:57;10.40;99.90
46976;DHT22;32724;51.094;6.996;2023-02-12T15:57:23;10.00;99.90
46976;DHT22;32724;51.094;6.996;2023-02-12T15:59:50;9.90;99.90
46976;DHT22;32724;51.094;6.996;2023-02-12T16:02:20;9.80;99.90
46976;DHT22;32724;51.094;6.996;2023-02-12T16:04:49;9.80;99.90
46976;DHT22;32724;51.094;6.996;2023-02-12T16:07:15;9.70;99.90
46976;DHT22;32724;51.094;6.996;2023-02-12T16:09:41;9.50;99.90
46976;DHT22;32724;51.094;6.996;2023-02-12T16:12:06;9.40;99.90
46976;DHT22;32724;51.094;6.996;2023-02-12T16:14:46;9.20;99.90
46976;DHT22;32724;51.094;6.996;2023-02-12T16:17:17;9.30;99.90
46976;DHT22;32724;51.094;6.996;2023-02-12T16:19:51;9.40;99.90
46976;DHT22;32724;51.094;6.996;2023-02-12T16:22:17;9.60;99.90
46976;DHT22;32724;51.094;6.996;2023-02-12T16:27:19;9.90;99.90
46976;DHT22;32724;51.094;6.996;2023-02-12T16:29:49;9.90;99.90
46976;DHT22;32724;51.094;6.996;2023-02-12T16:35:44;10.00;99.90
46976;DHT22;32724;51.094;6.996;2023-02-12T16:37:48;10.00;99.90
46976;DHT22;32724;51.094;6.996;2023-02-12T16:47:49;10.00;99.90
46976;DHT22;32724;51.094;6.996;2023-02-12T16:50:18;10.00;99.90
46976;DHT22;32724;51.094;6.996;2023-02-12T16:52:44;10.10;99.90
46976;DHT22;32724;51.094;6.996;2023-02-12T16:55:13;10.00;99.90
46976;DHT22;32724;51.094;6.996;2023-02-12T16:57:39;10.00;99.90
46976;DHT22;32724;51.094;6.996;2023-02-12T17:00:05;10.00;99.90
46976;DHT22;32724;51.094;6.996;2023-02-12T17:02:32;10.00;99.90
46976;DHT22;32724;51.094;6.996;2023-02-12T17:05:00;9.90;99.90
46976;DHT22;32724;51.094;6.996;2023-02-12T17:07:26;9.90;99.90
46976;DHT22;32724;51.094;6.996;2023-02-12T17:09:53;9.90;99.90
46976;DHT22;32724;51.094;6.996;2023-02-12T17:12:18;9.90;99.90
46976;DHT22;32724;51.094;6.996;2023-02-12T17:14:44;9.90;99.90
46976;DHT22;32724;51.094;6.996;2023-02-12T17:17:10;9.90;99.90
46976;DHT22;32724;51.094;6.996;2023-02-12T17:19:35;9.60;99.90
46976;DHT22;32724;51.094;6.996;2023-02-12T17:22:01;9.40;99.90
46976;DHT22;32724;51.094;6.996;2023-02-12T17:24:29;9.30;99.90
46976;DHT22;32724;51.094;6.996;2023-02-12T17:26:55;9.20;99.90
46976;DHT22;32724;51.094;6.996;2023-02-12T17:29:22;9.30;99.90
46976;DHT22;32724;51.094;6.996;2023-02-12T17:31:48;9.30;99.90
46976;DHT22;32724;51.094;6.996;2023-02-12T17:34:14;9.40;99.90
46976;DHT22;32724;51.094;6.996;2023-02-12T17:36:39;9.40;99.90
46976;DHT22;32724;51.094;6.996;2023-02-12T17:39:05;9.50;99.90
46976;DHT22;32724;51.094;6.996;2023-02-12T17:41:31;9.50;99.90
46976;DHT22;32724;51.094;6.996;2023-02-12T17:43:57;9.50;99.90
46976;DHT22;32724;51.094;6.996;2023-02-12T17:46:23;9.50;99.90
46976;DHT22;32724;51.094;6.996;2023-02-12T17:48:49;9.50;99.90
46976;DHT22;32724;51.094;6.996;2023-02-12T17:51:14;9.50;99.90
46976;DHT22;32724;51.094;6.996;2023-02-12T17:53:40;9.50;99.90
46976;DHT22;32724;51.094;6.996;2023-02-12T17:56:13;9.50;99.90
46976;DHT22;32724;51.094;6.996;2023-02-12T17:58:39;9.50;99.90
46976;DHT22;32724;51.094;6.996;2023-02-12T18:01:05;9.50;99.90
46976;DHT22;32724;51.094;6.996;2023-02-12T18:03:31;9.50;99.90
46976;DHT22;32724;51.094;6.996;2023-02-12T18:05:56;9.50;99.90
46976;DHT22;32724;51.094;6.996;2023-02-12T18:08:22;9.50;99.90
46976;DHT22;32724;51.094;6.996;2023-02-12T18:10:47;9.50;99.90
46976;DHT22;32724;51.094;6.996;2023-02-12T18:13:13;9.50;99.90
46976;DHT22;32724;51.094;6.996;2023-02-12T18:15:39;9.50;99.90